Time;durP1;ratioP1;P1;durP2;ratioP2;P2;SDS_P1;SDS_P2;PMS_P1;PMS_P2;Temp;Humidity;BMP_temperature;BMP_pressure;BME280_temperature;BME280_humidity;BME280_pressure;Samples;Min_cycle;Max_cycle;Signal;HPM_P1;HPM_P2
2022/09/12 00:05:29;;;;;;;0.20;0.20;;;;;;;18.95;56.33;100261.97;18354580;32;20176;-56
2022/09/12 00:15:37;;;;;;;0.55;0.55;;;;;;;19.05;55.72;100264.28;18353944;32;20670;-56
2022/09/12 00:25:46;;;;;;;0.20;0.20;;;;;;;19.14;54.72;100261.28;18353403;32;20424;-56
2022/09/12 00:35:51;;;;;;;0.20;0.20;;;;;;;19.03;56.54;100269.66;18361196;32;20109;-56
2022/09/12 00:45:56;;;;;;;0.20;0.20;;;;;;;19.25;55.06;100264.37;18362437;31;20389;-56
2022/09/12 00:56:00;;;;;;;0.22;0.22;;;;;;;18.79;57.14;100271.44;18361923;32;20097;-56
2022/09/12 01:06:09;;;;;;;0.35;0.35;;;;;;;18.89;56.67;100266.66;18361668;31;20105;-55
2022/09/12 01:16:12;;;;;;;7.95;1.12;;;;;;;18.69;56.43;100265.62;18361452;31;20089;-55
2022/09/12 01:26:33;;;;;;;0.25;0.25;;;;;;;18.86;55.17;100259.69;18360988;32;20074;-55
2022/09/12 01:36:47;;;;;;;0.30;0.30;;;;;;;18.88;55.41;100265.81;18361797;31;20353;-56
2022/09/12 01:46:55;;;;;;;0.20;0.20;;;;;;;19.00;54.23;100264.44;18360505;32;20086;-56
2022/09/12 01:57:03;;;;;;;1.27;0.65;;;;;;;18.66;55.86;100269.25;18361118;31;20090;-56
2022/09/12 02:07:11;;;;;;;0.30;0.30;;;;;;;18.65;55.32;100258.75;18359412;31;20090;-56
2022/09/12 02:17:19;;;;;;;0.30;0.30;;;;;;;18.79;54.43;100256.44;18360444;32;20394;-55
2022/09/12 02:27:25;;;;;;;7.10;0.77;;;;;;;18.83;54.12;100265.09;18359831;32;20108;-56
2022/09/12 02:37:38;;;;;;;0.20;0.20;;;;;;;18.68;55.96;100272.69;18358706;32;20103;-56
2022/09/12 02:47:44;;;;;;;0.30;0.30;;;;;;;18.80;55.73;100265.22;18357880;32;20120;-56
2022/09/12 02:57:49;;;;;;;0.35;0.35;;;;;;;18.89;55.49;100259.59;18357882;32;20409;-56
2022/09/12 03:08:25;;;;;;;0.95;0.30;;;;;;;18.77;56.97;100267.97;18357032;32;20120;-56
2022/09/12 03:18:40;;;;;;;0.30;0.30;;;;;;;18.58;58.09;100266.03;18356307;32;20185;-56
2022/09/12 03:28:44;;;;;;;0.28;0.28;;;;;;;18.57;57.65;100288.09;18356097;32;20111;-56
2022/09/12 03:38:49;;;;;;;0.37;0.37;;;;;;;18.69;57.32;100277.09;18355807;32;20095;-56
2022/09/12 03:48:52;;;;;;;0.22;0.22;;;;;;;18.60;57.61;100288.00;18356046;32;20097;-56
2022/09/12 03:58:57;;;;;;;0.40;0.40;;;;;;;18.49;57.33;100284.87;18354950;31;20105;-56
2022/09/12 04:09:00;;;;;;;0.57;0.30;;;;;;;18.33;57.64;100303.09;18361469;32;20082;-56
2022/09/12 04:19:05;;;;;;;0.43;0.43;;;;;;;18.50;57.35;100299.84;18363340;32;20141;-56
2022/09/12 04:29:09;;;;;;;0.20;0.20;;;;;;;18.33;57.13;100309.25;18361506;32;20085;-56
2022/09/12 04:39:15;;;;;;;0.30;0.30;;;;;;;18.16;57.55;100309.81;18360219;31;20101;-56
2022/09/12 04:49:19;;;;;;;0.52;0.52;;;;;;;18.33;57.51;100301.31;18357525;31;20426;-57
2022/09/12 04:59:23;;;;;;;0.52;0.30;;;;;;;18.34;58.42;100297.75;18361589;32;20346;-56
2022/09/12 05:09:28;;;;;;;1.37;1.17;;;;;;;18.17;58.69;100301.87;18361228;32;20090;-56
2022/09/12 05:19:32;;;;;;;1.77;1.58;;;;;;;17.92;59.67;100299.19;18361345;32;20111;-56
2022/09/12 05:29:36;;;;;;;0.20;0.20;;;;;;;17.77;60.52;100324.34;18412807;31;20108;-56
2022/09/12 05:39:40;;;;;;;0.40;0.40;;;;;;;18.69;59.55;100337.91;18358752;32;20089;-56
2022/09/12 05:49:46;;;;;;;0.22;0.20;;;;;;;21.06;53.02;100333.44;18356923;32;20157;-56
2022/09/12 05:59:51;;;;;;;0.82;0.22;;;;;;;23.57;44.01;100332.03;18355535;31;20129;-56
2022/09/12 06:09:55;;;;;;;0.00;0.00;;;;;;;24.99;40.08;100329.75;18356568;32;20092;-56
2022/09/12 06:20:07;;;;;;;0.13;0.13;;;;;;;24.93;38.71;100332.78;18355064;32;20145;-58
2022/09/12 06:30:21;;;;;;;0.10;0.10;;;;;;;25.04;37.96;100330.31;18297661;32;20169;-56
2022/09/12 06:40:28;;;;;;;1.98;0.55;;;;;;;24.78;37.71;100338.16;18256282;32;20119;-56
2022/09/12 06:50:32;;;;;;;0.30;0.30;;;;;;;24.69;37.89;100336.06;18237437;32;20113;-56
2022/09/12 07:00:36;;;;;;;0.08;0.08;;;;;;;25.51;36.13;100340.66;18256499;32;20176;-56
2022/09/12 07:10:39;;;;;;;0.85;0.35;;;;;;;25.58;36.45;100346.50;18252906;32;20176;-56
2022/09/12 07:20:44;;;;;;;0.20;0.20;;;;;;;25.58;36.29;100355.34;18303913;32;20086;-56
2022/09/12 07:30:47;;;;;;;0.08;0.08;;;;;;;25.62;37.56;100362.22;18239134;32;20090;-56
2022/09/12 07:40:52;;;;;;;0.03;0.03;;;;;;;24.58;39.90;100365.22;18227870;32;20135;-56
2022/09/12 07:50:59;;;;;;;0.10;0.10;;;;;;;24.00;40.21;100375.75;18227720;32;20123;-55
2022/09/12 08:01:08;;;;;;;0.00;0.00;;;;;;;23.75;41.28;100371.88;18167821;32;20410;-56
2022/09/12 08:11:12;;;;;;;0.10;0.10;;;;;;;23.82;41.88;100370.56;18214658;32;20494;-57
2022/09/12 08:21:18;;;;;;;0.20;0.20;;;;;;;23.87;41.60;100378.31;18225632;32;20187;-56
2022/09/12 08:31:23;;;;;;;0.32;0.17;;;;;;;24.09;40.28;100369.91;18227720;32;20164;-56
2022/09/12 08:41:30;;;;;;;0.37;0.37;;;;;;;24.31;40.40;100371.28;18250124;32;20484;-56
2022/09/12 08:51:34;;;;;;;0.20;0.20;;;;;;;24.53;40.91;100369.00;18302105;32;20453;-56
2022/09/12 09:01:43;;;;;;;0.20;0.20;;;;;;;24.54;39.87;100364.53;18240555;32;20093;-55
2022/09/12 09:11:55;;;;;;;0.10;0.10;;;;;;;24.51;40.46;100362.03;18277554;32;20126;-56
2022/09/12 09:22:03;;;;;;;0.10;0.10;;;;;;;24.75;38.38;100349.00;18280520;32;20474;-56
2022/09/12 09:32:13;;;;;;;0.00;0.00;;;;;;;25.02;38.87;100353.56;18283287;32;20335;-55
2022/09/12 09:42:28;;;;;;;0.20;0.20;;;;;;;25.26;36.46;100352.09;18247814;32;20090;-56
2022/09/12 09:52:32;;;;;;;0.00;0.00;;;;;;;25.30;36.67;100357.12;18291185;32;20093;-55
2022/09/12 10:02:37;;;;;;;0.20;0.20;;;;;;;25.04;37.79;100351.69;18293431;32;20102;-56
2022/09/12 10:12:40;;;;;;;0.10;0.10;;;;;;;24.90;37.94;100351.69;18252540;32;20095;-55
2022/09/12 10:22:47;;;;;;;0.20;0.20;;;;;;;24.42;38.82;100346.59;18230170;32;20392;-56
2022/09/12 10:32:51;;;;;;;0.05;0.05;;;;;;;24.24;40.98;100347.66;18269252;32;20440;-55
2022/09/12 10:42:57;;;;;;;0.17;0.10;;;;;;;25.41;39.12;100332.37;18242578;32;20706;-55
2022/09/12 10:53:16;;;;;;;0.20;0.10;;;;;;;25.37;38.57;100335.37;18274041;32;20101;-55
2022/09/12 11:03:24;;;;;;;1.10;0.70;;;;;;;25.49;37.30;100332.75;18204299;32;20098;-55
2022/09/12 11:13:44;;;;;;;0.10;0.10;;;;;;;25.35;38.96;100311.41;18306847;32;20702;-56
2022/09/12 11:24:10;;;;;;;0.55;0.20;;;;;;;25.70;37.29;100300.22;18304018;32;20168;-55
2022/09/12 11:34:16;;;;;;;0.00;0.00;;;;;;;24.56;38.12;100319.94;18249023;32;20094;-55
2022/09/12 11:44:24;;;;;;;0.85;0.25;;;;;;;23.86;40.11;100333.94;18299793;32;20088;-56
2022/09/12 11:54:31;;;;;;;0.10;0.10;;;;;;;23.32;43.08;100338.75;18509302;32;20105;-55
2022/09/12 12:04:40;;;;;;;0.00;0.00;;;;;;;22.97;42.45;100333.59;18504575;32;20093;-56
2022/09/12 12:14:44;;;;;;;0.43;0.43;;;;;;;23.21;43.48;100330.47;18513694;32;20233;-56
2022/09/12 12:25:06;;;;;;;0.32;0.30;;;;;;;24.10;40.04;100311.16;18490955;32;20092;-56
2022/09/12 12:35:40;;;;;;;0.37;0.20;;;;;;;24.16;39.00;100299.25;18545316;32;20148;-55
2022/09/12 12:46:06;;;;;;;0.10;0.10;;;;;;;24.69;37.84;100281.81;18295672;32;20747;-55
2022/09/12 12:56:27;;;;;;;0.20;0.20;;;;;;;25.04;34.64;100276.03;18317216;32;20094;-55
2022/09/12 13:06:35;;;;;;;0.10;0.10;;;;;;;25.12;34.13;100283.53;18333559;32;20131;-55
2022/09/12 13:16:40;;;;;;;0.25;0.20;;;;;;;25.69;35.05;100265.56;18408440;32;20109;-55
2022/09/12 13:26:48;;;;;;;0.08;0.08;;;;;;;26.18;33.91;100264.84;18496048;32;20100;-56
2022/09/12 13:37:05;;;;;;;0.17;0.17;;;;;;;25.35;34.39;100271.34;18492120;32;20614;-56
2022/09/12 13:47:12;;;;;;;0.10;0.10;;;;;;;25.41;34.89;100259.38;18478650;32;20128;-56
2022/09/12 13:57:30;;;;;;;0.05;0.05;;;;;;;25.12;35.55;100262.19;18282492;32;20129;-56
2022/09/12 14:07:39;;;;;;;0.00;0.00;;;;;;;24.86;35.54;100254.06;18299809;32;20128;-56
2022/09/12 14:17:50;;;;;;;0.90;0.35;;;;;;;24.32;36.88;100252.97;18495674;32;20360;-55
2022/09/12 14:27:56;;;;;;;;;;;;;;;24.50;34.31;100254.50;18495050;32;20131;-55
2022/09/12 14:38:07;;;;;;;0.10;0.10;;;;;;;25.03;33.55;100253.81;18495935;32;20032;-56
2022/09/12 14:48:18;;;;;;;0.10;0.10;;;;;;;25.24;33.70;100250.69;18481188;32;20433;-56
2022/09/12 14:58:26;;;;;;;0.10;0.10;;;;;;;25.29;33.31;100242.38;18480582;32;20108;-56
2022/09/12 15:08:31;;;;;;;0.10;0.10;;;;;;;25.29;32.77;100245.88;18495412;32;20108;-55
2022/09/12 15:18:34;;;;;;;0.20;0.20;;;;;;;24.96;33.49;100238.31;18493439;32;20151;-55
2022/09/12 15:28:39;;;;;;;0.00;0.00;;;;;;;24.72;32.95;100238.94;18487167;32;20115;-56
2022/09/12 15:38:42;;;;;;;0.10;0.10;;;;;;;24.56;33.41;100244.37;18477645;32;20423;-56
2022/09/12 15:48:47;;;;;;;0.00;0.00;;;;;;;24.29;32.56;100239.84;18492321;32;20089;-55
2022/09/12 15:58:50;;;;;;;0.00;0.00;;;;;;;24.01;33.51;100247.69;18477002;32;20115;-56
2022/09/12 16:09:03;;;;;;;0.00;0.00;;;;;;;23.76;34.53;100240.34;18491814;32;20124;-56
2022/09/12 16:19:08;;;;;;;0.05;0.05;;;;;;;23.74;34.34;100247.56;18489681;32;20100;-56
2022/09/12 16:29:13;;;;;;;0.10;0.10;;;;;;;23.41;35.17;100247.66;18490306;32;20097;-56
2022/09/12 16:39:16;;;;;;;0.10;0.10;;;;;;;23.28;35.30;100257.31;18489827;32;20179;-56
2022/09/12 16:49:21;;;;;;;0.08;0.08;;;;;;;23.14;35.22;100258.09;18489171;32;20198;-56
2022/09/12 16:59:24;;;;;;;0.10;0.10;;;;;;;;;;18488814;32;20092;-56
2022/09/12 17:09:28;;;;;;;0.05;0.05;;;;;;;22.59;37.13;100249.59;18490856;32;20141;-56
2022/09/12 17:19:32;;;;;;;0.10;0.10;;;;;;;22.39;37.41;100253.34;18479053;32;20159;-56
2022/09/12 17:29:37;;;;;;;1.08;0.47;;;;;;;22.25;38.05;100257.59;18499226;32;20380;-56
2022/09/12 17:39:40;;;;;;;0.10;0.10;;;;;;;21.74;38.94;100271.75;18499379;32;20133;-56
2022/09/12 17:49:46;;;;;;;0.57;0.47;;;;;;;21.60;40.90;100311.37;18415529;32;20092;-56
2022/09/12 17:59:49;;;;;;;0.10;0.10;;;;;;;21.09;43.00;100317.38;18473658;32;20085;-56
2022/09/12 18:09:54;;;;;;;0.10;0.10;;;;;;;20.67;44.25;100313.97;18481939;32;20122;-56
2022/09/12 18:19:57;;;;;;;0.25;0.25;;;;;;;20.28;45.75;100344.84;18483915;32;20088;-56
2022/09/12 18:30:01;;;;;;;0.95;0.95;;;;;;;19.59;48.21;100352.13;18483198;32;20452;-56
2022/09/12 18:40:23;;;;;;;0.20;0.20;;;;;;;18.91;49.90;100355.59;18483632;32;20365;-56
2022/09/12 18:50:27;;;;;;;0.40;0.40;;;;;;;18.55;50.63;100361.31;18495330;32;20138;-56
2022/09/12 19:00:30;;;;;;;0.20;0.20;;;;;;;18.16;52.29;100379.37;18490811;32;20154;-56
2022/09/12 19:10:35;;;;;;;0.30;0.30;;;;;;;17.77;53.93;100377.16;18443533;32;20495;-56
2022/09/12 19:20:38;;;;;;;0.65;0.65;;;;;;;17.53;54.82;100371.72;18477693;32;20384;-56
2022/09/12 19:30:48;;;;;;;0.20;0.20;;;;;;;17.18;55.13;100373.69;18477398;32;20175;-56
2022/09/12 19:41:01;;;;;;;0.30;0.30;;;;;;;17.34;53.96;100377.56;18488576;32;20089;-56
2022/09/12 19:51:06;;;;;;;0.20;0.20;;;;;;;17.18;55.02;100364.00;18493137;32;20149;-56
2022/09/12 20:01:11;;;;;;;0.30;0.30;;;;;;;16.88;55.95;100360.47;18488489;32;20123;-56
2022/09/12 20:11:17;;;;;;;0.50;0.50;;;;;;;16.64;57.14;100362.91;18487284;32;20119;-57
2022/09/12 20:21:23;;;;;;;0.32;0.32;;;;;;;16.40;57.77;100352.13;18470499;32;20104;-56
2022/09/12 20:31:28;;;;;;;0.40;0.40;;;;;;;16.39;57.73;100353.03;18471495;32;20135;-56
2022/09/12 20:41:34;;;;;;;0.50;0.50;;;;;;;16.02;58.43;100362.78;18484061;32;20092;-56
2022/09/12 20:51:38;;;;;;;0.30;0.30;;;;;;;15.76;58.90;100347.62;18483415;32;20119;-56
2022/09/12 21:01:42;;;;;;;1.35;0.73;;;;;;;15.51;59.29;100374.50;18463095;32;20092;-56
2022/09/12 21:11:47;;;;;;;0.40;0.40;;;;;;;15.35;59.36;100376.63;18496626;32;20097;-56
2022/09/12 21:21:50;;;;;;;0.40;0.40;;;;;;;15.19;59.58;100381.38;18500056;32;20092;-56
2022/09/12 21:31:54;;;;;;;0.40;0.40;;;;;;;15.11;59.77;100385.00;18499871;32;20096;-56
2022/09/12 21:41:58;;;;;;;0.60;0.52;;;;;;;15.00;60.16;100404.53;18484602;32;20182;-56
2022/09/12 21:52:03;;;;;;;0.28;0.28;;;;;;;14.71;60.87;100412.09;18497874;32;20112;-56
2022/09/12 22:02:07;;;;;;;0.32;0.32;;;;;;;14.50;61.11;100429.09;18458014;32;20093;-56
2022/09/12 22:12:12;;;;;;;0.50;0.50;;;;;;;14.19;61.99;100433.13;18499328;32;20069;-56
2022/09/12 22:32:37;;;;;;;0.95;0.85;;;;;;;14.11;61.32;100445.50;18433438;32;20093;-56
2022/09/12 22:42:40;;;;;;;0.40;0.40;;;;;;;13.74;62.39;100439.06;18486060;32;20107;-56
2022/09/12 22:52:45;;;;;;;0.35;0.35;;;;;;;13.66;62.02;100449.69;18488362;32;20108;-56
2022/09/12 23:02:48;;;;;;;0.40;0.40;;;;;;;13.66;62.49;100449.69;18432738;32;20146;-56
2022/09/12 23:12:54;;;;;;;0.40;0.40;;;;;;;13.46;63.07;100442.94;18418960;32;20449;-56
2022/09/12 23:22:57;;;;;;;0.40;0.40;;;;;;;13.51;63.33;100445.50;18432155;32;20111;-56
2022/09/12 23:33:01;;;;;;;0.22;0.22;;;;;;;13.43;62.92;100432.47;18431621;32;20420;-56
2022/09/12 23:43:04;;;;;;;0.40;0.40;;;;;;;13.33;63.10;100433.47;18431249;32;20369;-56
2022/09/12 23:53:09;;;;;;;0.40;0.40;;;;;;;13.08;63.59;100431.16;18425666;32;156284;-56
